Mesures en temps réel :

Wind Speed:
CloudBase:
Pressure:

Données extraites du METAR (ESSEY) :


Ephéméride:

Dernière MàJ: 04/12/2022, 04:34:00.
 (Attention : horaires donnés en heure LOCALE, déjà corrigée hiver/été. Pour UTC, retrancher 1H).
Heure du lever aéronautique (-6°):07:23:18
Heure du lever standard:08:01:20


Heure du coucher standard:16:28:13
Heure du coucher aéronautique (-6°):17:06:14


 source: http://vo.imcce.fr/webservices/miriade/

Mesures récentes

5 dernières minutes : Vitesse moyenne : 24.8 m/s | Rafales : 29.6 m/s | Direction moyenne : 22 °




METAR (LFSN - Nancy ESSEY)


LFSN 042230Z AUTO VRB02KT 9000 BKN008 OVC013 02/02 Q1014
Cloudbase :800ft

Prévision WINDY

Prévision WINDGURU

Images satellite sat24.com